sensor_id;sensor_type;location;lat;lon;timestamp;pressure;altitude;pressure_sealevel;temperature;humidity
77017;BME280;65949;53.132;17.930;2024-01-30T00:00:43;102614.29;;;-1.72;90.18
77017;BME280;65949;53.132;17.930;2024-01-30T00:03:30;102619.95;;;-1.72;90.36
77017;BME280;65949;53.132;17.930;2024-01-30T00:05:56;102621.32;;;-1.74;90.06
77017;BME280;65949;53.132;17.930;2024-01-30T00:08:23;102616.02;;;-1.78;90.14
77017;BME280;65949;53.132;17.930;2024-01-30T00:10:49;102618.84;;;-1.79;90.17
77017;BME280;65949;53.132;17.930;2024-01-30T00:13:16;102620.86;;;-1.79;90.10
77017;BME280;65949;53.132;17.930;2024-01-30T00:15:45;102619.98;;;-1.81;90.04
77017;BME280;65949;53.132;17.930;2024-01-30T00:18:11;102620.38;;;-1.84;90.11
77017;BME280;65949;53.132;17.930;2024-01-30T00:20:38;102617.73;;;-1.85;90.16
77017;BME280;65949;53.132;17.930;2024-01-30T00:23:05;102619.14;;;-1.85;90.13
77017;BME280;65949;53.132;17.930;2024-01-30T00:25:31;102613.92;;;-1.86;90.22
77017;BME280;65949;53.132;17.930;2024-01-30T00:27:59;102612.86;;;-1.88;90.38
77017;BME280;65949;53.132;17.930;2024-01-30T00:30:26;102616.19;;;-1.89;90.35
77017;BME280;65949;53.132;17.930;2024-01-30T00:32:53;102613.79;;;-1.89;90.59
77017;BME280;65949;53.132;17.930;2024-01-30T00:35:20;102613.05;;;-1.88;90.61
77017;BME280;65949;53.132;17.930;2024-01-30T00:37:48;102610.38;;;-1.88;90.42
77017;BME280;65949;53.132;17.930;2024-01-30T00:40:15;102610.74;;;-1.91;90.35
77017;BME280;65949;53.132;17.930;2024-01-30T00:42:43;102611.95;;;-1.91;90.48
77017;BME280;65949;53.132;17.930;2024-01-30T00:45:14;102612.55;;;-1.92;90.64
77017;BME280;65949;53.132;17.930;2024-01-30T00:47:42;102610.08;;;-1.93;90.53
77017;BME280;65949;53.132;17.930;2024-01-30T00:50:09;102610.73;;;-1.95;90.38
77017;BME280;65949;53.132;17.930;2024-01-30T00:52:36;102616.00;;;-1.97;90.33
77017;BME280;65949;53.132;17.930;2024-01-30T00:55:03;102613.73;;;-1.98;90.16
77017;BME280;65949;53.132;17.930;2024-01-30T00:57:29;102613.27;;;-2.01;89.99
77017;BME280;65949;53.132;17.930;2024-01-30T00:59:57;102612.15;;;-2.04;90.06
77017;BME280;65949;53.132;17.930;2024-01-30T01:02:23;102613.28;;;-2.05;90.18
77017;BME280;65949;53.132;17.930;2024-01-30T01:04:50;102609.77;;;-2.06;90.17
77017;BME280;65949;53.132;17.930;2024-01-30T01:07:16;102607.96;;;-2.07;90.12
77017;BME280;65949;53.132;17.930;2024-01-30T01:09:43;102606.80;;;-2.07;90.28
77017;BME280;65949;53.132;17.930;2024-01-30T01:12:10;102603.45;;;-2.08;90.04
77017;BME280;65949;53.132;17.930;2024-01-30T01:14:36;102598.63;;;-2.09;90.02
77017;BME280;65949;53.132;17.930;2024-01-30T01:17:03;102600.95;;;-2.10;90.05
77017;BME280;65949;53.132;17.930;2024-01-30T01:19:29;102596.63;;;-2.12;89.98
77017;BME280;65949;53.132;17.930;2024-01-30T01:21:56;102596.10;;;-2.14;89.84
77017;BME280;65949;53.132;17.930;2024-01-30T01:24:23;102604.16;;;-2.14;89.91
77017;BME280;65949;53.132;17.930;2024-01-30T01:26:50;102602.92;;;-2.16;90.07
77017;BME280;65949;53.132;17.930;2024-01-30T01:29:17;102604.48;;;-2.16;89.84
77017;BME280;65949;53.132;17.930;2024-01-30T01:31:44;102601.59;;;-2.18;89.75
77017;BME280;65949;53.132;17.930;2024-01-30T01:34:11;102603.81;;;-2.21;89.81
77017;BME280;65949;53.132;17.930;2024-01-30T01:36:39;102604.39;;;-2.21;89.80
77017;BME280;65949;53.132;17.930;2024-01-30T01:39:05;102607.70;;;-2.23;89.69
77017;BME280;65949;53.132;17.930;2024-01-30T01:41:32;102610.64;;;-2.23;89.81
77017;BME280;65949;53.132;17.930;2024-01-30T01:43:59;102607.80;;;-2.24;89.90
77017;BME280;65949;53.132;17.930;2024-01-30T01:46:27;102607.38;;;-2.25;89.72
77017;BME280;65949;53.132;17.930;2024-01-30T01:48:56;102603.30;;;-2.25;89.80
77017;BME280;65949;53.132;17.930;2024-01-30T01:51:24;102599.95;;;-2.26;89.89
77017;BME280;65949;53.132;17.930;2024-01-30T01:53:53;102598.31;;;-2.26;89.88
77017;BME280;65949;53.132;17.930;2024-01-30T01:56:22;102596.36;;;-2.27;89.87
77017;BME280;65949;53.132;17.930;2024-01-30T01:58:51;102598.10;;;-2.28;89.95
77017;BME280;65949;53.132;17.930;2024-01-30T02:01:21;102598.70;;;-2.27;90.22
77017;BME280;65949;53.132;17.930;2024-01-30T02:03:49;102594.86;;;-2.26;90.24
77017;BME280;65949;53.132;17.930;2024-01-30T02:06:16;102596.46;;;-2.24;90.37
77017;BME280;65949;53.132;17.930;2024-01-30T02:08:43;102589.73;;;-2.23;90.29
77017;BME280;65949;53.132;17.930;2024-01-30T02:11:10;102587.34;;;-2.21;90.48
77017;BME280;65949;53.132;17.930;2024-01-30T02:13:37;102588.65;;;-2.20;90.53
77017;BME280;65949;53.132;17.930;2024-01-30T02:16:04;102587.53;;;-2.19;90.44
77017;BME280;65949;53.132;17.930;2024-01-30T02:18:31;102591.16;;;-2.18;90.45
77017;BME280;65949;53.132;17.930;2024-01-30T02:20:58;102594.67;;;-2.17;90.42
77017;BME280;65949;53.132;17.930;2024-01-30T02:23:28;102593.35;;;-2.18;90.16
77017;BME280;65949;53.132;17.930;2024-01-30T02:25:55;102592.27;;;-2.19;90.21
77017;BME280;65949;53.132;17.930;2024-01-30T02:28:21;102593.70;;;-2.20;90.25
77017;BME280;65949;53.132;17.930;2024-01-30T02:30:48;102592.63;;;-2.21;90.22
77017;BME280;65949;53.132;17.930;2024-01-30T02:33:14;102587.95;;;-2.23;90.15
77017;BME280;65949;53.132;17.930;2024-01-30T02:35:41;102584.96;;;-2.23;90.22
77017;BME280;65949;53.132;17.930;2024-01-30T02:38:08;102585.23;;;-2.24;90.04
77017;BME280;65949;53.132;17.930;2024-01-30T02:40:34;102580.02;;;-2.25;90.00
77017;BME280;65949;53.132;17.930;2024-01-30T02:43:02;102579.73;;;-2.26;90.22
77017;BME280;65949;53.132;17.930;2024-01-30T02:45:29;102579.68;;;-2.25;90.19
77017;BME280;65949;53.132;17.930;2024-01-30T02:47:56;102579.30;;;-2.27;90.10
77017;BME280;65949;53.132;17.930;2024-01-30T02:50:22;102580.67;;;-2.29;89.98
77017;BME280;65949;53.132;17.930;2024-01-30T02:52:49;102579.34;;;-2.32;90.03
77017;BME280;65949;53.132;17.930;2024-01-30T02:55:16;102578.10;;;-2.33;90.12
77017;BME280;65949;53.132;17.930;2024-01-30T02:57:46;102577.11;;;-2.34;90.35
77017;BME280;65949;53.132;17.930;2024-01-30T03:00:13;102571.40;;;-2.32;90.49
77017;BME280;65949;53.132;17.930;2024-01-30T03:02:40;102569.48;;;-2.32;90.31
77017;BME280;65949;53.132;17.930;2024-01-30T03:05:07;102568.17;;;-2.30;90.35
77017;BME280;65949;53.132;17.930;2024-01-30T03:07:34;102568.55;;;-2.29;90.45
77017;BME280;65949;53.132;17.930;2024-01-30T03:10:01;102567.67;;;-2.28;90.40
77017;BME280;65949;53.132;17.930;2024-01-30T03:12:28;102571.15;;;-2.27;90.40
77017;BME280;65949;53.132;17.930;2024-01-30T03:14:55;102576.52;;;-2.26;90.34
77017;BME280;65949;53.132;17.930;2024-01-30T03:17:21;102579.65;;;-2.27;90.32
77017;BME280;65949;53.132;17.930;2024-01-30T03:19:48;102582.87;;;-2.27;90.39
77017;BME280;65949;53.132;17.930;2024-01-30T03:22:14;102583.20;;;-2.27;90.28
77017;BME280;65949;53.132;17.930;2024-01-30T03:24:41;102583.14;;;-2.26;90.28
77017;BME280;65949;53.132;17.930;2024-01-30T03:27:08;102581.39;;;-2.26;90.23
77017;BME280;65949;53.132;17.930;2024-01-30T03:29:35;102576.96;;;-2.25;90.18
77017;BME280;65949;53.132;17.930;2024-01-30T03:32:02;102574.23;;;-2.25;90.04
77017;BME280;65949;53.132;17.930;2024-01-30T03:34:30;102574.75;;;-2.26;90.02
77017;BME280;65949;53.132;17.930;2024-01-30T03:36:56;102573.50;;;-2.25;90.35
77017;BME280;65949;53.132;17.930;2024-01-30T03:39:23;102578.14;;;-2.23;90.27
77017;BME280;65949;53.132;17.930;2024-01-30T03:41:50;102579.41;;;-2.22;90.32
77017;BME280;65949;53.132;17.930;2024-01-30T03:44:16;102575.92;;;-2.21;90.41
77017;BME280;65949;53.132;17.930;2024-01-30T03:46:43;102570.80;;;-2.21;90.36
77017;BME280;65949;53.132;17.930;2024-01-30T03:49:09;102570.08;;;-2.20;90.36
77017;BME280;65949;53.132;17.930;2024-01-30T03:51:36;102575.29;;;-2.19;90.17
77017;BME280;65949;53.132;17.930;2024-01-30T03:54:03;102575.00;;;-2.20;90.34
77017;BME280;65949;53.132;17.930;2024-01-30T03:56:29;102575.71;;;-2.20;90.30
77017;BME280;65949;53.132;17.930;2024-01-30T03:58:56;102573.48;;;-2.22;90.31
77017;BME280;65949;53.132;17.930;2024-01-30T04:01:23;102571.02;;;-2.22;90.25
77017;BME280;65949;53.132;17.930;2024-01-30T04:03:50;102573.23;;;-2.21;90.40
77017;BME280;65949;53.132;17.930;2024-01-30T04:06:16;102567.98;;;-2.22;90.40
77017;BME280;65949;53.132;17.930;2024-01-30T04:08:43;102568.34;;;-2.22;90.29
77017;BME280;65949;53.132;17.930;2024-01-30T04:11:09;102570.45;;;-2.23;90.23
77017;BME280;65949;53.132;17.930;2024-01-30T04:13:36;102572.10;;;-2.22;90.13
77017;BME280;65949;53.132;17.930;2024-01-30T04:16:03;102571.16;;;-2.23;90.09
77017;BME280;65949;53.132;17.930;2024-01-30T04:18:30;102570.60;;;-2.23;90.08
77017;BME280;65949;53.132;17.930;2024-01-30T04:20:56;102564.64;;;-2.22;90.18
77017;BME280;65949;53.132;17.930;2024-01-30T04:23:23;102563.38;;;-2.22;90.33
77017;BME280;65949;53.132;17.930;2024-01-30T04:25:49;102562.95;;;-2.21;90.20
77017;BME280;65949;53.132;17.930;2024-01-30T04:28:16;102567.58;;;-2.21;90.11
77017;BME280;65949;53.132;17.930;2024-01-30T04:30:42;102565.61;;;-2.22;90.18
77017;BME280;65949;53.132;17.930;2024-01-30T04:33:10;102566.25;;;-2.22;90.27
77017;BME280;65949;53.132;17.930;2024-01-30T04:35:37;102564.75;;;-2.22;90.25
77017;BME280;65949;53.132;17.930;2024-01-30T04:38:03;102570.05;;;-2.20;90.51
77017;BME280;65949;53.132;17.930;2024-01-30T04:40:30;102570.27;;;-2.19;90.51
77017;BME280;65949;53.132;17.930;2024-01-30T04:42:56;102572.80;;;-2.16;90.51
77017;BME280;65949;53.132;17.930;2024-01-30T04:45:24;102577.39;;;-2.16;90.15
77017;BME280;65949;53.132;17.930;2024-01-30T04:47:51;102576.71;;;-2.16;90.33
77017;BME280;65949;53.132;17.930;2024-01-30T04:50:17;102578.46;;;-2.16;90.42
77017;BME280;65949;53.132;17.930;2024-01-30T04:52:45;102579.55;;;-2.15;90.44
77017;BME280;65949;53.132;17.930;2024-01-30T04:55:12;102581.73;;;-2.15;90.56
77017;BME280;65949;53.132;17.930;2024-01-30T04:57:38;102582.71;;;-2.13;90.44
77017;BME280;65949;53.132;17.930;2024-01-30T05:00:06;102579.20;;;-2.11;90.56
77017;BME280;65949;53.132;17.930;2024-01-30T05:02:33;102580.96;;;-2.12;90.43
77017;BME280;65949;53.132;17.930;2024-01-30T05:04:59;102585.20;;;-2.09;90.36
77017;BME280;65949;53.132;17.930;2024-01-30T05:07:26;102583.60;;;-2.09;90.34
77017;BME280;65949;53.132;17.930;2024-01-30T05:09:53;102578.05;;;-2.07;90.49
77017;BME280;65949;53.132;17.930;2024-01-30T05:12:20;102575.05;;;-2.06;90.40
77017;BME280;65949;53.132;17.930;2024-01-30T05:14:47;102573.75;;;-2.05;90.49
77017;BME280;65949;53.132;17.930;2024-01-30T05:17:14;102571.06;;;-2.03;90.53
77017;BME280;65949;53.132;17.930;2024-01-30T05:19:40;102563.84;;;-2.02;90.49
77017;BME280;65949;53.132;17.930;2024-01-30T05:22:07;102566.33;;;-2.00;90.62
77017;BME280;65949;53.132;17.930;2024-01-30T05:24:33;102573.39;;;-1.99;90.47
77017;BME280;65949;53.132;17.930;2024-01-30T05:27:00;102574.92;;;-1.99;90.47
77017;BME280;65949;53.132;17.930;2024-01-30T05:29:27;102571.48;;;-1.98;90.36
77017;BME280;65949;53.132;17.930;2024-01-30T05:31:53;102569.28;;;-1.98;90.27
77017;BME280;65949;53.132;17.930;2024-01-30T05:34:20;102566.25;;;-1.99;90.33
77017;BME280;65949;53.132;17.930;2024-01-30T05:36:46;102562.89;;;-1.99;90.32
77017;BME280;65949;53.132;17.930;2024-01-30T05:39:13;102563.05;;;-1.99;90.38
77017;BME280;65949;53.132;17.930;2024-01-30T05:41:40;102558.77;;;-1.99;90.39
77017;BME280;65949;53.132;17.930;2024-01-30T05:44:06;102561.55;;;-1.97;90.51
77017;BME280;65949;53.132;17.930;2024-01-30T05:46:33;102565.23;;;-1.97;90.46
77017;BME280;65949;53.132;17.930;2024-01-30T05:49:00;102567.36;;;-1.98;90.47
77017;BME280;65949;53.132;17.930;2024-01-30T05:51:26;102571.14;;;-1.96;90.59
77017;BME280;65949;53.132;17.930;2024-01-30T05:53:54;102570.74;;;-1.95;90.57
77017;BME280;65949;53.132;17.930;2024-01-30T05:56:21;102573.77;;;-1.95;90.51
77017;BME280;65949;53.132;17.930;2024-01-30T05:58:47;102572.88;;;-1.94;90.59
77017;BME280;65949;53.132;17.930;2024-01-30T06:01:16;102578.95;;;-1.94;90.68
77017;BME280;65949;53.132;17.930;2024-01-30T06:03:43;102584.73;;;-1.94;90.58
77017;BME280;65949;53.132;17.930;2024-01-30T06:06:09;102588.58;;;-1.95;90.76
77017;BME280;65949;53.132;17.930;2024-01-30T06:08:36;102586.40;;;-1.95;90.71
77017;BME280;65949;53.132;17.930;2024-01-30T06:11:03;102585.21;;;-1.95;90.66
77017;BME280;65949;53.132;17.930;2024-01-30T06:13:29;102585.45;;;-1.96;90.75
77017;BME280;65949;53.132;17.930;2024-01-30T06:15:58;102586.08;;;-1.95;90.72
77017;BME280;65949;53.132;17.930;2024-01-30T06:18:24;102590.88;;;-1.96;90.71
77017;BME280;65949;53.132;17.930;2024-01-30T06:20:53;102590.52;;;-1.96;90.73
77017;BME280;65949;53.132;17.930;2024-01-30T06:23:20;102592.07;;;-1.96;90.69
77017;BME280;65949;53.132;17.930;2024-01-30T06:25:46;102592.77;;;-1.96;90.72
77017;BME280;65949;53.132;17.930;2024-01-30T06:28:13;102593.14;;;-1.96;90.46
77017;BME280;65949;53.132;17.930;2024-01-30T06:30:40;102590.44;;;-1.97;90.37
77017;BME280;65949;53.132;17.930;2024-01-30T06:33:06;102587.75;;;-1.97;90.46
77017;BME280;65949;53.132;17.930;2024-01-30T06:35:33;102591.81;;;-1.97;90.48
77017;BME280;65949;53.132;17.930;2024-01-30T06:38:01;102591.12;;;-1.97;90.48
77017;BME280;65949;53.132;17.930;2024-01-30T06:40:28;102589.70;;;-1.96;90.52
77017;BME280;65949;53.132;17.930;2024-01-30T06:42:54;102591.67;;;-1.95;90.50
77017;BME280;65949;53.132;17.930;2024-01-30T06:45:21;102586.11;;;-1.94;90.65
77017;BME280;65949;53.132;17.930;2024-01-30T06:47:47;102585.79;;;-1.92;90.74
77017;BME280;65949;53.132;17.930;2024-01-30T06:50:14;102585.41;;;-1.89;90.86
77017;BME280;65949;53.132;17.930;2024-01-30T06:52:40;102587.23;;;-1.87;90.77
77017;BME280;65949;53.132;17.930;2024-01-30T06:55:08;102585.98;;;-1.84;90.83
77017;BME280;65949;53.132;17.930;2024-01-30T06:57:35;102587.15;;;-1.80;90.89
77017;BME280;65949;53.132;17.930;2024-01-30T07:00:02;102585.08;;;-1.75;91.06
77017;BME280;65949;53.132;17.930;2024-01-30T07:02:29;102587.00;;;-1.70;91.25
77017;BME280;65949;53.132;17.930;2024-01-30T07:04:55;102588.27;;;-1.64;91.24
77017;BME280;65949;53.132;17.930;2024-01-30T07:07:22;102590.30;;;-1.58;91.36
77017;BME280;65949;53.132;17.930;2024-01-30T07:09:49;102593.50;;;-1.52;91.35
77017;BME280;65949;53.132;17.930;2024-01-30T07:12:18;102593.03;;;-1.48;91.03
77017;BME280;65949;53.132;17.930;2024-01-30T07:14:45;102596.38;;;-1.47;90.86
77017;BME280;65949;53.132;17.930;2024-01-30T07:17:12;102593.24;;;-1.46;90.91
77017;BME280;65949;53.132;17.930;2024-01-30T07:19:39;102588.92;;;-1.44;91.04
77017;BME280;65949;53.132;17.930;2024-01-30T07:22:05;102589.98;;;-1.40;91.03
77017;BME280;65949;53.132;17.930;2024-01-30T07:24:32;102593.59;;;-1.34;91.24
77017;BME280;65949;53.132;17.930;2024-01-30T07:26:59;102590.16;;;-1.30;91.08
77017;BME280;65949;53.132;17.930;2024-01-30T07:29:25;102591.19;;;-1.26;90.95
77017;BME280;65949;53.132;17.930;2024-01-30T07:31:52;102595.82;;;-1.23;90.96
77017;BME280;65949;53.132;17.930;2024-01-30T07:34:19;102589.85;;;-1.21;90.88
77017;BME280;65949;53.132;17.930;2024-01-30T07:36:45;102596.82;;;-1.16;90.90
77017;BME280;65949;53.132;17.930;2024-01-30T07:39:13;102596.21;;;-1.11;91.07
77017;BME280;65949;53.132;17.930;2024-01-30T07:41:40;102593.63;;;-1.07;91.18
77017;BME280;65949;53.132;17.930;2024-01-30T07:44:06;102594.34;;;-1.02;91.05
77017;BME280;65949;53.132;17.930;2024-01-30T07:46:33;102592.31;;;-0.96;91.11
77017;BME280;65949;53.132;17.930;2024-01-30T07:49:01;102591.91;;;-0.89;90.89
77017;BME280;65949;53.132;17.930;2024-01-30T07:51:28;102590.36;;;-0.83;90.99
77017;BME280;65949;53.132;17.930;2024-01-30T07:53:55;102589.34;;;-0.75;91.04
77017;BME280;65949;53.132;17.930;2024-01-30T07:56:23;102591.92;;;-0.68;91.15
77017;BME280;65949;53.132;17.930;2024-01-30T07:58:50;102591.34;;;-0.59;91.05
77017;BME280;65949;53.132;17.930;2024-01-30T08:01:17;102595.08;;;-0.50;91.12
77017;BME280;65949;53.132;17.930;2024-01-30T08:03:43;102593.94;;;-0.38;91.23
77017;BME280;65949;53.132;17.930;2024-01-30T08:06:10;102599.08;;;-0.27;91.25
77017;BME280;65949;53.132;17.930;2024-01-30T08:08:37;102601.27;;;-0.13;91.31
77017;BME280;65949;53.132;17.930;2024-01-30T08:11:04;102603.30;;;-0.00;91.19
77017;BME280;65949;53.132;17.930;2024-01-30T08:13:31;102602.45;;;0.13;90.91
77017;BME280;65949;53.132;17.930;2024-01-30T08:15:57;102603.94;;;0.27;90.94
77017;BME280;65949;53.132;17.930;2024-01-30T08:18:24;102603.64;;;0.42;90.88
77017;BME280;65949;53.132;17.930;2024-01-30T08:20:50;102601.13;;;0.56;90.69
77017;BME280;65949;53.132;17.930;2024-01-30T08:23:17;102600.41;;;0.69;90.17
77017;BME280;65949;53.132;17.930;2024-01-30T08:25:44;102597.69;;;0.82;90.19
77017;BME280;65949;53.132;17.930;2024-01-30T08:28:10;102597.39;;;0.94;90.10
77017;BME280;65949;53.132;17.930;2024-01-30T08:30:37;102598.76;;;1.06;89.81
77017;BME280;65949;53.132;17.930;2024-01-30T08:33:05;102592.64;;;1.19;89.64
77017;BME280;65949;53.132;17.930;2024-01-30T08:35:32;102593.01;;;1.31;89.39
77017;BME280;65949;53.132;17.930;2024-01-30T08:37:59;102595.98;;;1.42;89.19
77017;BME280;65949;53.132;17.930;2024-01-30T08:40:27;102595.08;;;1.55;89.06
77017;BME280;65949;53.132;17.930;2024-01-30T08:42:54;102594.58;;;1.68;88.84
77017;BME280;65949;53.132;17.930;2024-01-30T08:45:20;102598.25;;;1.81;88.53
77017;BME280;65949;53.132;17.930;2024-01-30T08:47:47;102595.30;;;1.91;87.98
77017;BME280;65949;53.132;17.930;2024-01-30T08:50:13;102593.63;;;2.03;87.86
77017;BME280;65949;53.132;17.930;2024-01-30T08:52:40;102591.90;;;2.15;87.87
77017;BME280;65949;53.132;17.930;2024-01-30T08:55:07;102589.75;;;2.27;87.52
77017;BME280;65949;53.132;17.930;2024-01-30T08:57:34;102584.65;;;2.37;86.82
77017;BME280;65949;53.132;17.930;2024-01-30T09:00:00;102584.38;;;2.46;86.57
77017;BME280;65949;53.132;17.930;2024-01-30T09:02:30;102583.36;;;2.52;86.64
77017;BME280;65949;53.132;17.930;2024-01-30T09:04:57;102581.98;;;2.61;86.08
77017;BME280;65949;53.132;17.930;2024-01-30T09:07:24;102578.09;;;2.67;85.33
77017;BME280;65949;53.132;17.930;2024-01-30T09:09:50;102575.66;;;2.72;84.90
77017;BME280;65949;53.132;17.930;2024-01-30T09:12:17;102575.05;;;2.78;85.17
77017;BME280;65949;53.132;17.930;2024-01-30T09:14:44;102576.44;;;2.85;84.82
77017;BME280;65949;53.132;17.930;2024-01-30T09:17:10;102575.65;;;2.91;84.45
77017;BME280;65949;53.132;17.930;2024-01-30T09:19:37;102571.13;;;2.96;84.05
77017;BME280;65949;53.132;17.930;2024-01-30T09:22:04;102572.87;;;3.03;84.06
77017;BME280;65949;53.132;17.930;2024-01-30T09:24:30;102566.83;;;3.08;83.81
77017;BME280;65949;53.132;17.930;2024-01-30T09:26:57;102570.52;;;3.14;83.65
77017;BME280;65949;53.132;17.930;2024-01-30T09:29:23;102566.92;;;3.19;82.92
77017;BME280;65949;53.132;17.930;2024-01-30T09:31:50;102565.91;;;3.24;83.21
77017;BME280;65949;53.132;17.930;2024-01-30T09:34:16;102567.40;;;3.29;82.57
77017;BME280;65949;53.132;17.930;2024-01-30T09:36:43;102569.60;;;3.34;82.92
77017;BME280;65949;53.132;17.930;2024-01-30T09:39:10;102565.58;;;3.41;82.67
77017;BME280;65949;53.132;17.930;2024-01-30T09:44:30;102555.78;;;3.53;82.44
77017;BME280;65949;53.132;17.930;2024-01-30T09:46:57;102551.42;;;3.58;81.95
77017;BME280;65949;53.132;17.930;2024-01-30T09:49:32;102548.73;;;3.64;81.40
77017;BME280;65949;53.132;17.930;2024-01-30T09:52:00;102549.92;;;3.69;81.34
77017;BME280;65949;53.132;17.930;2024-01-30T09:54:30;102547.02;;;3.73;81.20
77017;BME280;65949;53.132;17.930;2024-01-30T09:56:58;102544.54;;;3.79;81.45
77017;BME280;65949;53.132;17.930;2024-01-30T09:59:25;102544.16;;;3.84;81.48
77017;BME280;65949;53.132;17.930;2024-01-30T10:01:52;102539.02;;;3.91;81.18
77017;BME280;65949;53.132;17.930;2024-01-30T10:04:19;102537.23;;;3.98;80.78
77017;BME280;65949;53.132;17.930;2024-01-30T10:06:46;102535.58;;;4.05;80.27
77017;BME280;65949;53.132;17.930;2024-01-30T10:09:13;102534.27;;;4.12;80.54
77017;BME280;65949;53.132;17.930;2024-01-30T10:11:40;102533.27;;;4.20;80.41
77017;BME280;65949;53.132;17.930;2024-01-30T10:14:07;102533.16;;;4.27;79.75
77017;BME280;65949;53.132;17.930;2024-01-30T10:16:34;102529.44;;;4.33;79.87
77017;BME280;65949;53.132;17.930;2024-01-30T10:19:01;102529.67;;;4.37;79.67
77017;BME280;65949;53.132;17.930;2024-01-30T10:21:32;102526.17;;;4.40;79.38
77017;BME280;65949;53.132;17.930;2024-01-30T10:23:58;102522.33;;;4.42;79.16
77017;BME280;65949;53.132;17.930;2024-01-30T10:26:25;102520.81;;;4.44;79.00
77017;BME280;65949;53.132;17.930;2024-01-30T10:28:52;102518.96;;;4.47;79.17
77017;BME280;65949;53.132;17.930;2024-01-30T10:31:18;102520.64;;;4.50;78.70
77017;BME280;65949;53.132;17.930;2024-01-30T10:33:45;102517.52;;;4.53;78.65
77017;BME280;65949;53.132;17.930;2024-01-30T10:36:13;102515.95;;;4.57;78.01
77017;BME280;65949;53.132;17.930;2024-01-30T10:38:42;102517.02;;;4.59;76.90
77017;BME280;65949;53.132;17.930;2024-01-30T10:41:11;102517.27;;;4.63;77.05
77017;BME280;65949;53.132;17.930;2024-01-30T10:43:41;102516.48;;;4.69;76.67
77017;BME280;65949;53.132;17.930;2024-01-30T10:46:18;102517.20;;;4.73;76.55
77017;BME280;65949;53.132;17.930;2024-01-30T10:48:58;102513.80;;;4.77;76.41
77017;BME280;65949;53.132;17.930;2024-01-30T10:51:29;102514.04;;;4.83;76.22
77017;BME280;65949;53.132;17.930;2024-01-30T10:53:57;102509.03;;;4.89;74.80
77017;BME280;65949;53.132;17.930;2024-01-30T10:56:24;102508.73;;;4.96;75.57
77017;BME280;65949;53.132;17.930;2024-01-30T10:58:52;102506.12;;;5.01;75.81
77017;BME280;65949;53.132;17.930;2024-01-30T11:01:20;102507.55;;;5.08;75.52
77017;BME280;65949;53.132;17.930;2024-01-30T11:03:50;102504.15;;;5.12;75.30
77017;BME280;65949;53.132;17.930;2024-01-30T11:06:18;102505.39;;;5.17;75.18
77017;BME280;65949;53.132;17.930;2024-01-30T11:08:45;102505.34;;;5.22;75.47
77017;BME280;65949;53.132;17.930;2024-01-30T11:11:12;102504.64;;;5.26;75.38
77017;BME280;65949;53.132;17.930;2024-01-30T11:13:39;102497.41;;;5.29;75.32
77017;BME280;65949;53.132;17.930;2024-01-30T11:16:06;102496.80;;;5.31;74.70
77017;BME280;65949;53.132;17.930;2024-01-30T11:18:35;102493.75;;;5.34;74.76
77017;BME280;65949;53.132;17.930;2024-01-30T11:21:04;102487.08;;;5.35;74.01
77017;BME280;65949;53.132;17.930;2024-01-30T11:23:33;102487.23;;;5.37;74.14
77017;BME280;65949;53.132;17.930;2024-01-30T11:26:01;102487.00;;;5.39;74.43
77017;BME280;65949;53.132;17.930;2024-01-30T11:28:35;102484.73;;;5.40;74.30
77017;BME280;65949;53.132;17.930;2024-01-30T11:31:05;102486.15;;;5.43;74.39
77017;BME280;65949;53.132;17.930;2024-01-30T11:33:33;102480.02;;;5.45;74.47
77017;BME280;65949;53.132;17.930;2024-01-30T11:36:01;102483.51;;;5.46;74.19
77017;BME280;65949;53.132;17.930;2024-01-30T11:38:33;102479.63;;;5.47;73.97
77017;BME280;65949;53.132;17.930;2024-01-30T11:41:00;102482.06;;;5.49;73.97
77017;BME280;65949;53.132;17.930;2024-01-30T11:43:27;102475.63;;;5.49;73.54
77017;BME280;65949;53.132;17.930;2024-01-30T11:45:54;102473.77;;;5.50;73.53
77017;BME280;65949;53.132;17.930;2024-01-30T11:48:21;102469.80;;;5.53;73.17
77017;BME280;65949;53.132;17.930;2024-01-30T11:50:48;102467.52;;;5.58;73.27
77017;BME280;65949;53.132;17.930;2024-01-30T11:53:15;102456.91;;;5.60;72.90
77017;BME280;65949;53.132;17.930;2024-01-30T11:55:42;102455.53;;;5.63;72.94
77017;BME280;65949;53.132;17.930;2024-01-30T11:58:15;102451.43;;;5.69;72.82
77017;BME280;65949;53.132;17.930;2024-01-30T12:00:42;102449.42;;;5.76;72.72
77017;BME280;65949;53.132;17.930;2024-01-30T12:03:11;102445.70;;;5.84;72.77
77017;BME280;65949;53.132;17.930;2024-01-30T12:05:38;102443.36;;;5.92;72.57
77017;BME280;65949;53.132;17.930;2024-01-30T12:08:15;102436.95;;;6.01;71.94
77017;BME280;65949;53.132;17.930;2024-01-30T12:10:41;102432.24;;;6.09;71.88
77017;BME280;65949;53.132;17.930;2024-01-30T12:13:08;102431.08;;;6.17;71.81
77017;BME280;65949;53.132;17.930;2024-01-30T12:15:35;102431.92;;;6.24;71.30
77017;BME280;65949;53.132;17.930;2024-01-30T12:18:06;102422.65;;;6.30;70.97
77017;BME280;65949;53.132;17.930;2024-01-30T12:20:33;102424.45;;;6.38;70.97
77017;BME280;65949;53.132;17.930;2024-01-30T12:23:00;102419.26;;;6.43;70.08
77017;BME280;65949;53.132;17.930;2024-01-30T12:25:27;102412.67;;;6.49;70.44
77017;BME280;65949;53.132;17.930;2024-01-30T12:27:53;102406.17;;;6.56;70.82
77017;BME280;65949;53.132;17.930;2024-01-30T12:30:21;102407.62;;;6.64;70.39
77017;BME280;65949;53.132;17.930;2024-01-30T12:32:50;102405.79;;;6.72;70.00
77017;BME280;65949;53.132;17.930;2024-01-30T12:35:18;102400.23;;;6.79;69.95
77017;BME280;65949;53.132;17.930;2024-01-30T12:37:47;102399.33;;;6.85;69.22
77017;BME280;65949;53.132;17.930;2024-01-30T12:40:15;102395.48;;;6.91;68.99
77017;BME280;65949;53.132;17.930;2024-01-30T12:42:42;102394.10;;;6.97;69.25
77017;BME280;65949;53.132;17.930;2024-01-30T12:45:09;102392.46;;;7.01;69.32